sensor_id;sensor_type;location;lat;lon;timestamp;P1;durP1;ratioP1;P2;durP2;ratioP2
82328;SDS011;72321;56.908;60.608;2023-09-18T00:00:58;44.30;;;22.63;;
82328;SDS011;72321;56.908;60.608;2023-09-18T00:03:24;44.53;;;21.45;;
82328;SDS011;72321;56.908;60.608;2023-09-18T00:05:50;51.53;;;22.52;;
82328;SDS011;72321;56.908;60.608;2023-09-18T00:08:16;40.03;;;21.20;;
82328;SDS011;72321;56.908;60.608;2023-09-18T00:10:41;47.30;;;22.17;;
82328;SDS011;72321;56.908;60.608;2023-09-18T00:13:07;44.88;;;21.08;;
82328;SDS011;72321;56.908;60.608;2023-09-18T00:15:32;42.47;;;21.48;;
82328;SDS011;72321;56.908;60.608;2023-09-18T00:17:58;42.92;;;19.73;;
82328;SDS011;72321;56.908;60.608;2023-09-18T00:20:23;38.72;;;20.90;;
82328;SDS011;72321;56.908;60.608;2023-09-18T00:22:55;48.83;;;21.15;;
82328;SDS011;72321;56.908;60.608;2023-09-18T00:25:21;44.38;;;21.73;;
82328;SDS011;72321;56.908;60.608;2023-09-18T00:27:46;43.05;;;22.70;;
82328;SDS011;72321;56.908;60.608;2023-09-18T00:30:11;40.25;;;21.15;;
82328;SDS011;72321;56.908;60.608;2023-09-18T00:32:37;40.35;;;20.77;;
82328;SDS011;72321;56.908;60.608;2023-09-18T00:35:02;40.05;;;21.20;;
82328;SDS011;72321;56.908;60.608;2023-09-18T00:37:28;42.97;;;23.08;;
82328;SDS011;72321;56.908;60.608;2023-09-18T00:39:53;50.97;;;22.70;;
82328;SDS011;72321;56.908;60.608;2023-09-18T00:42:19;46.38;;;24.17;;
82328;SDS011;72321;56.908;60.608;2023-09-18T00:44:46;45.00;;;23.58;;
82328;SDS011;72321;56.908;60.608;2023-09-18T00:47:12;39.33;;;21.55;;
82328;SDS011;72321;56.908;60.608;2023-09-18T00:49:39;50.50;;;24.95;;
82328;SDS011;72321;56.908;60.608;2023-09-18T00:52:05;40.50;;;23.33;;
82328;SDS011;72321;56.908;60.608;2023-09-18T00:54:32;55.72;;;24.55;;
82328;SDS011;72321;56.908;60.608;2023-09-18T00:56:58;56.33;;;25.17;;
82328;SDS011;72321;56.908;60.608;2023-09-18T00:59:24;51.90;;;23.25;;
82328;SDS011;72321;56.908;60.608;2023-09-18T01:01:49;51.42;;;25.77;;
82328;SDS011;72321;56.908;60.608;2023-09-18T01:04:19;58.05;;;23.58;;
82328;SDS011;72321;56.908;60.608;2023-09-18T01:06:44;57.53;;;24.83;;
82328;SDS011;72321;56.908;60.608;2023-09-18T01:09:09;56.20;;;26.48;;
82328;SDS011;72321;56.908;60.608;2023-09-18T01:11:43;57.08;;;24.83;;
82328;SDS011;72321;56.908;60.608;2023-09-18T01:14:17;59.35;;;25.50;;
82328;SDS011;72321;56.908;60.608;2023-09-18T01:16:46;56.47;;;23.63;;
82328;SDS011;72321;56.908;60.608;2023-09-18T01:19:15;50.97;;;22.83;;
82328;SDS011;72321;56.908;60.608;2023-09-18T01:21:40;48.67;;;24.48;;
82328;SDS011;72321;56.908;60.608;2023-09-18T01:24:06;51.90;;;24.48;;
82328;SDS011;72321;56.908;60.608;2023-09-18T01:26:31;43.38;;;21.60;;
82328;SDS011;72321;56.908;60.608;2023-09-18T01:28:57;44.25;;;22.83;;
82328;SDS011;72321;56.908;60.608;2023-09-18T01:31:22;48.17;;;22.50;;
82328;SDS011;72321;56.908;60.608;2023-09-18T01:33:47;46.85;;;23.15;;
82328;SDS011;72321;56.908;60.608;2023-09-18T01:36:13;47.83;;;23.63;;
82328;SDS011;72321;56.908;60.608;2023-09-18T01:38:40;43.85;;;23.55;;
82328;SDS011;72321;56.908;60.608;2023-09-18T01:41:06;44.50;;;24.20;;
82328;SDS011;72321;56.908;60.608;2023-09-18T01:43:32;61.40;;;24.27;;
82328;SDS011;72321;56.908;60.608;2023-09-18T01:45:57;51.03;;;22.88;;
82328;SDS011;72321;56.908;60.608;2023-09-18T01:48:23;47.67;;;21.77;;
82328;SDS011;72321;56.908;60.608;2023-09-18T01:50:48;54.38;;;25.25;;
82328;SDS011;72321;56.908;60.608;2023-09-18T01:53:14;45.20;;;23.52;;
82328;SDS011;72321;56.908;60.608;2023-09-18T01:55:39;44.33;;;22.35;;
82328;SDS011;72321;56.908;60.608;2023-09-18T01:58:04;44.42;;;23.20;;
82328;SDS011;72321;56.908;60.608;2023-09-18T02:00:30;59.20;;;23.60;;
82328;SDS011;72321;56.908;60.608;2023-09-18T02:02:55;55.55;;;21.95;;
82328;SDS011;72321;56.908;60.608;2023-09-18T02:05:21;48.78;;;23.67;;
82328;SDS011;72321;56.908;60.608;2023-09-18T02:07:46;52.78;;;24.48;;
82328;SDS011;72321;56.908;60.608;2023-09-18T02:10:12;57.15;;;25.55;;
82328;SDS011;72321;56.908;60.608;2023-09-18T02:12:38;52.50;;;22.67;;
82328;SDS011;72321;56.908;60.608;2023-09-18T02:15:03;43.53;;;21.83;;
82328;SDS011;72321;56.908;60.608;2023-09-18T02:17:31;47.55;;;22.67;;
82328;SDS011;72321;56.908;60.608;2023-09-18T02:19:56;49.15;;;22.75;;
82328;SDS011;72321;56.908;60.608;2023-09-18T02:22:22;40.35;;;20.58;;
82328;SDS011;72321;56.908;60.608;2023-09-18T02:24:47;42.70;;;21.67;;
82328;SDS011;72321;56.908;60.608;2023-09-18T02:27:13;38.05;;;20.75;;
82328;SDS011;72321;56.908;60.608;2023-09-18T02:29:38;48.03;;;20.67;;
82328;SDS011;72321;56.908;60.608;2023-09-18T02:32:03;41.40;;;20.48;;
82328;SDS011;72321;56.908;60.608;2023-09-18T02:34:29;43.83;;;21.90;;
82328;SDS011;72321;56.908;60.608;2023-09-18T02:36:54;51.97;;;23.20;;
82328;SDS011;72321;56.908;60.608;2023-09-18T02:39:20;40.15;;;21.13;;
82328;SDS011;72321;56.908;60.608;2023-09-18T02:41:45;35.63;;;19.75;;
82328;SDS011;72321;56.908;60.608;2023-09-18T02:44:10;40.45;;;19.75;;
82328;SDS011;72321;56.908;60.608;2023-09-18T02:46:36;46.92;;;19.30;;
82328;SDS011;72321;56.908;60.608;2023-09-18T02:49:02;48.63;;;20.73;;
82328;SDS011;72321;56.908;60.608;2023-09-18T02:51:27;52.80;;;22.10;;
82328;SDS011;72321;56.908;60.608;2023-09-18T02:53:53;60.67;;;19.40;;
82328;SDS011;72321;56.908;60.608;2023-09-18T02:56:18;44.00;;;18.77;;
82328;SDS011;72321;56.908;60.608;2023-09-18T02:58:43;31.75;;;18.95;;
82328;SDS011;72321;56.908;60.608;2023-09-18T03:01:09;38.03;;;19.23;;
82328;SDS011;72321;56.908;60.608;2023-09-18T03:03:34;35.70;;;18.00;;
82328;SDS011;72321;56.908;60.608;2023-09-18T03:06:00;34.50;;;18.95;;
82328;SDS011;72321;56.908;60.608;2023-09-18T03:08:26;38.22;;;18.00;;
82328;SDS011;72321;56.908;60.608;2023-09-18T03:10:51;44.22;;;18.95;;
82328;SDS011;72321;56.908;60.608;2023-09-18T03:13:16;38.05;;;17.35;;
82328;SDS011;72321;56.908;60.608;2023-09-18T03:15:44;51.25;;;18.98;;
82328;SDS011;72321;56.908;60.608;2023-09-18T03:18:10;45.92;;;17.50;;
82328;SDS011;72321;56.908;60.608;2023-09-18T03:20:35;34.45;;;17.08;;
82328;SDS011;72321;56.908;60.608;2023-09-18T03:23:01;30.45;;;14.77;;
82328;SDS011;72321;56.908;60.608;2023-09-18T03:25:27;26.85;;;14.73;;
82328;SDS011;72321;56.908;60.608;2023-09-18T03:27:52;21.77;;;12.80;;
82328;SDS011;72321;56.908;60.608;2023-09-18T03:30:18;31.02;;;13.50;;
82328;SDS011;72321;56.908;60.608;2023-09-18T03:32:44;24.25;;;14.07;;
82328;SDS011;72321;56.908;60.608;2023-09-18T03:35:10;25.52;;;13.35;;
82328;SDS011;72321;56.908;60.608;2023-09-18T03:37:45;25.42;;;12.98;;
82328;SDS011;72321;56.908;60.608;2023-09-18T03:40:10;23.50;;;14.90;;
82328;SDS011;72321;56.908;60.608;2023-09-18T03:42:35;36.30;;;18.42;;
82328;SDS011;72321;56.908;60.608;2023-09-18T03:45:01;30.60;;;17.60;;
82328;SDS011;72321;56.908;60.608;2023-09-18T03:47:27;24.20;;;12.60;;
82328;SDS011;72321;56.908;60.608;2023-09-18T03:49:52;20.00;;;12.77;;
82328;SDS011;72321;56.908;60.608;2023-09-18T03:52:18;21.42;;;11.25;;
82328;SDS011;72321;56.908;60.608;2023-09-18T03:54:43;19.88;;;12.18;;
82328;SDS011;72321;56.908;60.608;2023-09-18T03:57:08;23.52;;;12.50;;
82328;SDS011;72321;56.908;60.608;2023-09-18T03:59:34;16.88;;;10.60;;
82328;SDS011;72321;56.908;60.608;2023-09-18T04:01:59;21.35;;;10.40;;
82328;SDS011;72321;56.908;60.608;2023-09-18T04:04:25;22.88;;;11.98;;
82328;SDS011;72321;56.908;60.608;2023-09-18T04:06:50;25.27;;;12.40;;
82328;SDS011;72321;56.908;60.608;2023-09-18T04:09:15;23.35;;;10.73;;
82328;SDS011;72321;56.908;60.608;2023-09-18T04:11:41;18.80;;;10.80;;
82328;SDS011;72321;56.908;60.608;2023-09-18T04:14:06;16.20;;;9.90;;
82328;SDS011;72321;56.908;60.608;2023-09-18T04:16:32;18.85;;;10.45;;
82328;SDS011;72321;56.908;60.608;2023-09-18T04:19:03;58.22;;;12.75;;
82328;SDS011;72321;56.908;60.608;2023-09-18T04:21:29;23.00;;;11.00;;
82328;SDS011;72321;56.908;60.608;2023-09-18T04:23:55;15.90;;;9.80;;
82328;SDS011;72321;56.908;60.608;2023-09-18T04:26:25;15.27;;;9.43;;
82328;SDS011;72321;56.908;60.608;2023-09-18T04:28:55;23.30;;;9.05;;
82328;SDS011;72321;56.908;60.608;2023-09-18T04:31:20;14.85;;;9.43;;
82328;SDS011;72321;56.908;60.608;2023-09-18T04:33:45;19.88;;;9.77;;
82328;SDS011;72321;56.908;60.608;2023-09-18T04:36:11;17.88;;;10.38;;
82328;SDS011;72321;56.908;60.608;2023-09-18T04:38:36;17.55;;;9.73;;
82328;SDS011;72321;56.908;60.608;2023-09-18T04:41:02;18.55;;;10.05;;
82328;SDS011;72321;56.908;60.608;2023-09-18T04:43:27;17.35;;;9.73;;
82328;SDS011;72321;56.908;60.608;2023-09-18T04:45:55;19.23;;;9.57;;
82328;SDS011;72321;56.908;60.608;2023-09-18T04:48:20;19.15;;;10.27;;
82328;SDS011;72321;56.908;60.608;2023-09-18T04:50:46;18.58;;;10.90;;
82328;SDS011;72321;56.908;60.608;2023-09-18T04:53:12;26.20;;;11.43;;
82328;SDS011;72321;56.908;60.608;2023-09-18T04:55:37;19.67;;;10.45;;
82328;SDS011;72321;56.908;60.608;2023-09-18T04:58:03;16.95;;;10.05;;
82328;SDS011;72321;56.908;60.608;2023-09-18T05:00:30;18.40;;;10.77;;
82328;SDS011;72321;56.908;60.608;2023-09-18T05:02:57;17.70;;;10.27;;
82328;SDS011;72321;56.908;60.608;2023-09-18T05:05:25;18.77;;;10.48;;
82328;SDS011;72321;56.908;60.608;2023-09-18T05:07:50;18.58;;;10.30;;
82328;SDS011;72321;56.908;60.608;2023-09-18T05:10:16;19.08;;;9.90;;
82328;SDS011;72321;56.908;60.608;2023-09-18T05:12:41;19.67;;;10.85;;
82328;SDS011;72321;56.908;60.608;2023-09-18T05:15:07;17.10;;;10.35;;
82328;SDS011;72321;56.908;60.608;2023-09-18T05:17:41;24.10;;;10.77;;
82328;SDS011;72321;56.908;60.608;2023-09-18T05:20:08;21.02;;;9.60;;
82328;SDS011;72321;56.908;60.608;2023-09-18T05:22:35;18.13;;;10.02;;
82328;SDS011;72321;56.908;60.608;2023-09-18T05:25:00;25.13;;;10.88;;
82328;SDS011;72321;56.908;60.608;2023-09-18T05:27:26;20.38;;;10.90;;
82328;SDS011;72321;56.908;60.608;2023-09-18T05:29:51;22.83;;;9.77;;
82328;SDS011;72321;56.908;60.608;2023-09-18T05:32:17;17.27;;;11.18;;
82328;SDS011;72321;56.908;60.608;2023-09-18T05:34:42;24.35;;;11.75;;
82328;SDS011;72321;56.908;60.608;2023-09-18T05:37:07;31.42;;;11.10;;
82328;SDS011;72321;56.908;60.608;2023-09-18T05:39:33;31.45;;;12.63;;
82328;SDS011;72321;56.908;60.608;2023-09-18T05:41:58;25.17;;;11.70;;
82328;SDS011;72321;56.908;60.608;2023-09-18T05:44:23;27.23;;;11.88;;
82328;SDS011;72321;56.908;60.608;2023-09-18T05:46:49;22.40;;;11.65;;
82328;SDS011;72321;56.908;60.608;2023-09-18T05:49:14;26.10;;;12.55;;
82328;SDS011;72321;56.908;60.608;2023-09-18T05:51:39;22.45;;;11.70;;
82328;SDS011;72321;56.908;60.608;2023-09-18T05:54:05;23.58;;;10.75;;
82328;SDS011;72321;56.908;60.608;2023-09-18T05:56:30;20.40;;;10.88;;
82328;SDS011;72321;56.908;60.608;2023-09-18T05:58:55;31.13;;;13.10;;
82328;SDS011;72321;56.908;60.608;2023-09-18T06:01:21;27.58;;;13.73;;
82328;SDS011;72321;56.908;60.608;2023-09-18T06:03:47;24.45;;;12.00;;
82328;SDS011;72321;56.908;60.608;2023-09-18T06:06:12;22.63;;;12.95;;
82328;SDS011;72321;56.908;60.608;2023-09-18T06:08:38;28.33;;;12.20;;
82328;SDS011;72321;56.908;60.608;2023-09-18T06:11:03;19.25;;;9.40;;
82328;SDS011;72321;56.908;60.608;2023-09-18T06:13:28;17.23;;;9.57;;
82328;SDS011;72321;56.908;60.608;2023-09-18T06:15:54;19.20;;;9.57;;
82328;SDS011;72321;56.908;60.608;2023-09-18T06:18:21;23.42;;;8.55;;
82328;SDS011;72321;56.908;60.608;2023-09-18T06:20:46;19.15;;;9.10;;
82328;SDS011;72321;56.908;60.608;2023-09-18T06:23:12;19.33;;;7.63;;
82328;SDS011;72321;56.908;60.608;2023-09-18T06:25:38;12.95;;;7.47;;
82328;SDS011;72321;56.908;60.608;2023-09-18T06:28:03;17.10;;;7.28;;
82328;SDS011;72321;56.908;60.608;2023-09-18T06:30:29;16.98;;;7.47;;
82328;SDS011;72321;56.908;60.608;2023-09-18T06:32:56;17.15;;;7.82;;
82328;SDS011;72321;56.908;60.608;2023-09-18T06:35:21;16.58;;;8.10;;
82328;SDS011;72321;56.908;60.608;2023-09-18T06:37:46;14.77;;;7.32;;
82328;SDS011;72321;56.908;60.608;2023-09-18T06:40:12;15.73;;;7.15;;
82328;SDS011;72321;56.908;60.608;2023-09-18T06:42:38;21.98;;;8.32;;
82328;SDS011;72321;56.908;60.608;2023-09-18T06:45:04;13.98;;;7.15;;
82328;SDS011;72321;56.908;60.608;2023-09-18T06:47:32;11.85;;;6.57;;
82328;SDS011;72321;56.908;60.608;2023-09-18T06:49:57;16.75;;;7.65;;
82328;SDS011;72321;56.908;60.608;2023-09-18T06:52:22;12.95;;;7.13;;
82328;SDS011;72321;56.908;60.608;2023-09-18T06:54:48;13.05;;;6.90;;
82328;SDS011;72321;56.908;60.608;2023-09-18T06:57:14;8.80;;;5.82;;
82328;SDS011;72321;56.908;60.608;2023-09-18T06:59:39;13.23;;;6.75;;
82328;SDS011;72321;56.908;60.608;2023-09-18T07:04:30;15.90;;;7.83;;
82328;SDS011;72321;56.908;60.608;2023-09-18T07:06:55;13.57;;;7.15;;
82328;SDS011;72321;56.908;60.608;2023-09-18T07:09:21;14.35;;;8.18;;
82328;SDS011;72321;56.908;60.608;2023-09-18T07:11:48;18.30;;;8.82;;
82328;SDS011;72321;56.908;60.608;2023-09-18T07:14:13;16.38;;;8.68;;
82328;SDS011;72321;56.908;60.608;2023-09-18T07:16:39;17.52;;;8.23;;
82328;SDS011;72321;56.908;60.608;2023-09-18T07:19:04;18.83;;;9.35;;
82328;SDS011;72321;56.908;60.608;2023-09-18T07:21:30;17.80;;;7.85;;
82328;SDS011;72321;56.908;60.608;2023-09-18T07:23:55;16.17;;;9.00;;
82328;SDS011;72321;56.908;60.608;2023-09-18T07:26:20;19.50;;;8.75;;
82328;SDS011;72321;56.908;60.608;2023-09-18T07:31:11;23.95;;;10.60;;
82328;SDS011;72321;56.908;60.608;2023-09-18T07:33:39;19.77;;;9.43;;
82328;SDS011;72321;56.908;60.608;2023-09-18T07:36:04;20.00;;;9.80;;
82328;SDS011;72321;56.908;60.608;2023-09-18T07:40:55;18.35;;;8.73;;
82328;SDS011;72321;56.908;60.608;2023-09-18T07:45:48;18.20;;;9.40;;
82328;SDS011;72321;56.908;60.608;2023-09-18T07:48:14;21.48;;;9.55;;
82328;SDS011;72321;56.908;60.608;2023-09-18T07:50:45;20.95;;;8.25;;
82328;SDS011;72321;56.908;60.608;2023-09-18T07:53:10;17.27;;;8.00;;
82328;SDS011;72321;56.908;60.608;2023-09-18T07:55:36;12.73;;;8.00;;
82328;SDS011;72321;56.908;60.608;2023-09-18T07:58:01;11.98;;;7.90;;
82328;SDS011;72321;56.908;60.608;2023-09-18T08:00:26;13.82;;;7.88;;
82328;SDS011;72321;56.908;60.608;2023-09-18T08:02:53;13.38;;;8.20;;
82328;SDS011;72321;56.908;60.608;2023-09-18T08:05:21;12.27;;;7.55;;
82328;SDS011;72321;56.908;60.608;2023-09-18T08:07:46;16.67;;;8.10;;
82328;SDS011;72321;56.908;60.608;2023-09-18T08:10:13;13.93;;;8.40;;
82328;SDS011;72321;56.908;60.608;2023-09-18T08:12:38;14.27;;;7.63;;
82328;SDS011;72321;56.908;60.608;2023-09-18T08:15:03;14.23;;;7.93;;
82328;SDS011;72321;56.908;60.608;2023-09-18T08:17:30;13.45;;;6.72;;
82328;SDS011;72321;56.908;60.608;2023-09-18T08:19:56;12.52;;;7.78;;
82328;SDS011;72321;56.908;60.608;2023-09-18T08:22:23;17.67;;;8.57;;
82328;SDS011;72321;56.908;60.608;2023-09-18T08:24:49;14.07;;;7.85;;
82328;SDS011;72321;56.908;60.608;2023-09-18T08:27:15;11.13;;;7.05;;
82328;SDS011;72321;56.908;60.608;2023-09-18T08:29:42;12.30;;;7.57;;
82328;SDS011;72321;56.908;60.608;2023-09-18T08:32:08;12.60;;;7.93;;
82328;SDS011;72321;56.908;60.608;2023-09-18T08:34:33;13.52;;;8.60;;
82328;SDS011;72321;56.908;60.608;2023-09-18T08:39:24;14.23;;;8.33;;
82328;SDS011;72321;56.908;60.608;2023-09-18T08:44:14;18.50;;;8.13;;
82328;SDS011;72321;56.908;60.608;2023-09-18T08:49:05;18.47;;;8.00;;
82328;SDS011;72321;56.908;60.608;2023-09-18T08:51:32;25.75;;;8.68;;
82328;SDS011;72321;56.908;60.608;2023-09-18T08:53:58;14.25;;;8.40;;
82328;SDS011;72321;56.908;60.608;2023-09-18T08:58:49;15.93;;;9.27;;
82328;SDS011;72321;56.908;60.608;2023-09-18T09:03:40;14.63;;;8.80;;
82328;SDS011;72321;56.908;60.608;2023-09-18T09:06:07;13.20;;;8.48;;
82328;SDS011;72321;56.908;60.608;2023-09-18T09:08:33;13.13;;;7.97;;
82328;SDS011;72321;56.908;60.608;2023-09-18T09:10:59;11.57;;;8.23;;
82328;SDS011;72321;56.908;60.608;2023-09-18T09:15:53;12.70;;;7.88;;
82328;SDS011;72321;56.908;60.608;2023-09-18T09:18:21;12.70;;;7.30;;
82328;SDS011;72321;56.908;60.608;2023-09-18T09:23:11;14.40;;;6.93;;
82328;SDS011;72321;56.908;60.608;2023-09-18T09:25:37;10.90;;;7.07;;
82328;SDS011;72321;56.908;60.608;2023-09-18T09:30:28;15.75;;;7.97;;
82328;SDS011;72321;56.908;60.608;2023-09-18T09:35:23;11.70;;;6.77;;
82328;SDS011;72321;56.908;60.608;2023-09-18T09:37:51;12.73;;;7.47;;
82328;SDS011;72321;56.908;60.608;2023-09-18T09:40:18;9.32;;;7.07;;
82328;SDS011;72321;56.908;60.608;2023-09-18T09:42:44;12.20;;;6.95;;
82328;SDS011;72321;56.908;60.608;2023-09-18T09:45:14;9.77;;;6.75;;
82328;SDS011;72321;56.908;60.608;2023-09-18T09:47:43;14.05;;;8.20;;
82328;SDS011;72321;56.908;60.608;2023-09-18T09:52:44;10.25;;;7.05;;
82328;SDS011;72321;56.908;60.608;2023-09-18T09:55:18;9.82;;;7.05;;
82328;SDS011;72321;56.908;60.608;2023-09-18T09:57:46;11.77;;;6.78;;
82328;SDS011;72321;56.908;60.608;2023-09-18T10:00:12;11.43;;;6.88;;
82328;SDS011;72321;56.908;60.608;2023-09-18T10:02:52;10.10;;;6.78;;
82328;SDS011;72321;56.908;60.608;2023-09-18T10:05:18;13.15;;;7.72;;
82328;SDS011;72321;56.908;60.608;2023-09-18T10:10:09;15.43;;;8.03;;
82328;SDS011;72321;56.908;60.608;2023-09-18T10:15:00;11.77;;;6.20;;
82328;SDS011;72321;56.908;60.608;2023-09-18T10:19:58;47.07;;;10.30;;
82328;SDS011;72321;56.908;60.608;2023-09-18T10:22:42;15.75;;;8.75;;
82328;SDS011;72321;56.908;60.608;2023-09-18T10:25:15;13.85;;;7.20;;
82328;SDS011;72321;56.908;60.608;2023-09-18T10:27:45;13.18;;;7.60;;
82328;SDS011;72321;56.908;60.608;2023-09-18T10:30:13;11.10;;;7.68;;
82328;SDS011;72321;56.908;60.608;2023-09-18T10:35:04;10.27;;;6.97;;
82328;SDS011;72321;56.908;60.608;2023-09-18T10:37:30;9.27;;;6.78;;
82328;SDS011;72321;56.908;60.608;2023-09-18T10:39:56;11.27;;;6.90;;
82328;SDS011;72321;56.908;60.608;2023-09-18T10:42:24;11.73;;;7.35;;
82328;SDS011;72321;56.908;60.608;2023-09-18T10:47:15;12.52;;;7.75;;
82328;SDS011;72321;56.908;60.608;2023-09-18T10:49:41;10.77;;;8.13;;
82328;SDS011;72321;56.908;60.608;2023-09-18T10:54:32;11.07;;;7.13;;
82328;SDS011;72321;56.908;60.608;2023-09-18T10:56:58;9.82;;;7.00;;
82328;SDS011;72321;56.908;60.608;2023-09-18T11:01:49;13.23;;;6.87;;
82328;SDS011;72321;56.908;60.608;2023-09-18T11:09:21;14.73;;;7.80;;
82328;SDS011;72321;56.908;60.608;2023-09-18T11:11:46;11.57;;;7.45;;
82328;SDS011;72321;56.908;60.608;2023-09-18T11:14:17;22.38;;;8.48;;
82328;SDS011;72321;56.908;60.608;2023-09-18T11:19:12;15.40;;;7.65;;
82328;SDS011;72321;56.908;60.608;2023-09-18T11:21:39;14.55;;;7.53;;
82328;SDS011;72321;56.908;60.608;2023-09-18T11:26:33;13.23;;;7.53;;
82328;SDS011;72321;56.908;60.608;2023-09-18T11:29:00;15.13;;;7.80;;
82328;SDS011;72321;56.908;60.608;2023-09-18T11:31:45;13.93;;;7.80;;
82328;SDS011;72321;56.908;60.608;2023-09-18T11:34:13;16.17;;;8.55;;
82328;SDS011;72321;56.908;60.608;2023-09-18T11:36:38;13.05;;;8.00;;
82328;SDS011;72321;56.908;60.608;2023-09-18T11:41:30;18.00;;;7.20;;
82328;SDS011;72321;56.908;60.608;2023-09-18T11:46:45;19.48;;;8.55;;
82328;SDS011;72321;56.908;60.608;2023-09-18T11:49:12;11.50;;;7.60;;
82328;SDS011;72321;56.908;60.608;2023-09-18T11:54:03;12.57;;;8.67;;
82328;SDS011;72321;56.908;60.608;2023-09-18T11:56:30;11.77;;;7.82;;
82328;SDS011;72321;56.908;60.608;2023-09-18T11:58:56;14.20;;;8.65;;
82328;SDS011;72321;56.908;60.608;2023-09-18T12:03:53;15.27;;;8.45;;
82328;SDS011;72321;56.908;60.608;2023-09-18T12:06:19;18.15;;;9.18;;
82328;SDS011;72321;56.908;60.608;2023-09-18T12:11:12;11.02;;;9.75;;
82328;SDS011;72321;56.908;60.608;2023-09-18T12:13:42;14.25;;;7.72;;
82328;SDS011;72321;56.908;60.608;2023-09-18T12:18:34;17.02;;;8.05;;
82328;SDS011;72321;56.908;60.608;2023-09-18T12:21:02;12.85;;;7.65;;
82328;SDS011;72321;56.908;60.608;2023-09-18T12:23:40;19.23;;;10.40;;
82328;SDS011;72321;56.908;60.608;2023-09-18T12:26:07;19.08;;;13.18;;
82328;SDS011;72321;56.908;60.608;2023-09-18T12:30:58;17.27;;;9.60;;
82328;SDS011;72321;56.908;60.608;2023-09-18T12:33:24;14.60;;;9.98;;
82328;SDS011;72321;56.908;60.608;2023-09-18T12:38:18;12.60;;;8.18;;
82328;SDS011;72321;56.908;60.608;2023-09-18T12:40:52;12.75;;;8.02;;
82328;SDS011;72321;56.908;60.608;2023-09-18T12:45:43;10.73;;;7.03;;
82328;SDS011;72321;56.908;60.608;2023-09-18T12:50:35;7.72;;;6.97;;
82328;SDS011;72321;56.908;60.608;2023-09-18T12:55:25;18.53;;;10.50;;
82328;SDS011;72321;56.908;60.608;2023-09-18T12:57:52;20.17;;;13.20;;
82328;SDS011;72321;56.908;60.608;2023-09-18T13:00:18;11.77;;;8.30;;
82328;SDS011;72321;56.908;60.608;2023-09-18T13:02:46;9.93;;;6.78;;
82328;SDS011;72321;56.908;60.608;2023-09-18T13:05:11;10.65;;;7.00;;
82328;SDS011;72321;56.908;60.608;2023-09-18T13:07:45;9.73;;;6.60;;
82328;SDS011;72321;56.908;60.608;2023-09-18T13:10:10;8.85;;;7.55;;
82328;SDS011;72321;56.908;60.608;2023-09-18T13:12:40;11.02;;;6.28;;
82328;SDS011;72321;56.908;60.608;2023-09-18T13:15:05;10.65;;;6.68;;
82328;SDS011;72321;56.908;60.608;2023-09-18T13:17:40;13.75;;;7.43;;
82328;SDS011;72321;56.908;60.608;2023-09-18T13:20:10;21.73;;;7.75;;
82328;SDS011;72321;56.908;60.608;2023-09-18T13:22:36;9.27;;;6.65;;
82328;SDS011;72321;56.908;60.608;2023-09-18T13:27:27;9.50;;;6.00;;
82328;SDS011;72321;56.908;60.608;2023-09-18T13:32:21;13.15;;;7.40;;
82328;SDS011;72321;56.908;60.608;2023-09-18T13:34:47;8.32;;;6.00;;
82328;SDS011;72321;56.908;60.608;2023-09-18T13:37:13;9.13;;;6.25;;
82328;SDS011;72321;56.908;60.608;2023-09-18T13:42:04;9.63;;;5.77;;
82328;SDS011;72321;56.908;60.608;2023-09-18T13:44:30;10.27;;;6.63;;
82328;SDS011;72321;56.908;60.608;2023-09-18T13:46:56;8.38;;;6.05;;
82328;SDS011;72321;56.908;60.608;2023-09-18T13:49:21;8.73;;;5.97;;
82328;SDS011;72321;56.908;60.608;2023-09-18T13:51:47;12.30;;;5.97;;
82328;SDS011;72321;56.908;60.608;2023-09-18T13:54:15;10.30;;;6.45;;
82328;SDS011;72321;56.908;60.608;2023-09-18T13:56:41;12.60;;;6.43;;
82328;SDS011;72321;56.908;60.608;2023-09-18T13:59:08;18.67;;;7.57;;
82328;SDS011;72321;56.908;60.608;2023-09-18T14:01:36;13.02;;;7.25;;
82328;SDS011;72321;56.908;60.608;2023-09-18T14:04:01;145.40;;;59.83;;
82328;SDS011;72321;56.908;60.608;2023-09-18T14:06:27;19.23;;;11.40;;
82328;SDS011;72321;56.908;60.608;2023-09-18T14:08:52;13.13;;;7.75;;
82328;SDS011;72321;56.908;60.608;2023-09-18T14:11:18;30.10;;;14.35;;
82328;SDS011;72321;56.908;60.608;2023-09-18T14:16:09;228.17;;;88.73;;
82328;SDS011;72321;56.908;60.608;2023-09-18T14:18:35;257.25;;;101.10;;
82328;SDS011;72321;56.908;60.608;2023-09-18T14:21:01;51.90;;;25.38;;
82328;SDS011;72321;56.908;60.608;2023-09-18T14:25:52;11.80;;;6.33;;
82328;SDS011;72321;56.908;60.608;2023-09-18T14:28:17;15.82;;;8.85;;
82328;SDS011;72321;56.908;60.608;2023-09-18T14:30:42;21.48;;;8.88;;
82328;SDS011;72321;56.908;60.608;2023-09-18T14:33:08;190.35;;;48.72;;
82328;SDS011;72321;56.908;60.608;2023-09-18T14:35:34;67.28;;;23.10;;
82328;SDS011;72321;56.908;60.608;2023-09-18T14:38:01;46.25;;;16.05;;
82328;SDS011;72321;56.908;60.608;2023-09-18T14:40:29;33.60;;;12.23;;
82328;SDS011;72321;56.908;60.608;2023-09-18T14:42:54;16.50;;;6.78;;
82328;SDS011;72321;56.908;60.608;2023-09-18T14:45:19;41.00;;;19.08;;
82328;SDS011;72321;56.908;60.608;2023-09-18T14:50:10;24.10;;;11.53;;
82328;SDS011;72321;56.908;60.608;2023-09-18T14:52:35;13.75;;;6.82;;
82328;SDS011;72321;56.908;60.608;2023-09-18T14:55:01;12.73;;;7.13;;
82328;SDS011;72321;56.908;60.608;2023-09-18T14:57:30;10.93;;;6.65;;
82328;SDS011;72321;56.908;60.608;2023-09-18T14:59:55;10.25;;;6.75;;
82328;SDS011;72321;56.908;60.608;2023-09-18T15:04:46;8.35;;;6.15;;
82328;SDS011;72321;56.908;60.608;2023-09-18T15:09:39;15.48;;;6.03;;
82328;SDS011;72321;56.908;60.608;2023-09-18T15:12:04;11.75;;;5.07;;
82328;SDS011;72321;56.908;60.608;2023-09-18T15:14:33;10.65;;;5.97;;
82328;SDS011;72321;56.908;60.608;2023-09-18T15:19:24;86.13;;;27.53;;
82328;SDS011;72321;56.908;60.608;2023-09-18T15:21:49;18.63;;;9.23;;
82328;SDS011;72321;56.908;60.608;2023-09-18T15:24:15;14.60;;;7.55;;
82328;SDS011;72321;56.908;60.608;2023-09-18T15:26:40;36.17;;;14.38;;
82328;SDS011;72321;56.908;60.608;2023-09-18T15:29:06;29.35;;;13.38;;
82328;SDS011;72321;56.908;60.608;2023-09-18T15:31:33;33.97;;;17.15;;
82328;SDS011;72321;56.908;60.608;2023-09-18T15:33:59;18.13;;;9.55;;
82328;SDS011;72321;56.908;60.608;2023-09-18T15:36:24;18.83;;;10.15;;
82328;SDS011;72321;56.908;60.608;2023-09-18T15:38:49;14.60;;;9.23;;
82328;SDS011;72321;56.908;60.608;2023-09-18T15:41:16;55.22;;;26.50;;
82328;SDS011;72321;56.908;60.608;2023-09-18T15:43:41;59.28;;;25.67;;
82328;SDS011;72321;56.908;60.608;2023-09-18T15:46:09;32.30;;;18.33;;
82328;SDS011;72321;56.908;60.608;2023-09-18T15:48:34;24.17;;;12.65;;
82328;SDS011;72321;56.908;60.608;2023-09-18T15:51:00;37.42;;;21.83;;
82328;SDS011;72321;56.908;60.608;2023-09-18T15:53:25;23.13;;;12.88;;
82328;SDS011;72321;56.908;60.608;2023-09-18T15:55:51;15.70;;;8.15;;
82328;SDS011;72321;56.908;60.608;2023-09-18T15:58:16;16.30;;;6.80;;
82328;SDS011;72321;56.908;60.608;2023-09-18T16:00:43;14.60;;;9.15;;